Terminal Aerodrome Forecast
Issued by NWS

Home | Current Version | Previous Version | Text Only | Print | Product List | Glossary On
Versions: 1 2 3 4 5 6 7 8 9 10 11 12 13 14 15 16 17 18
000
FTUS41 KBGM 312323
TAFELM
TAF
KELM 312323Z 0100/0124 26005KT P6SM -SHRA SCT040 OVC100
      TEMPO 0101/0104 -SHRA BKN050
     FM010500 VRB03KT P6SM BKN120
     FM010800 VRB03KT 3SM BR BKN012
     FM011400 36010KT P6SM BKN040
     FM011800 01010KT P6SM SCT040=

USA.gov is the U.S. government's official web portal to all federal, state and local government web resources and services.